createdAt,value
2023-05-21T00:02:10.347Z,0.20
2023-05-21T00:04:37.823Z,0.30
2023-05-21T00:07:05.361Z,0.20
2023-05-21T00:09:32.727Z,0.10
2023-05-21T00:12:00.004Z,0.20
2023-05-21T00:14:27.525Z,0.20
2023-05-21T00:16:54.885Z,0.20
2023-05-21T00:19:22.561Z,0.10
2023-05-21T00:21:50.527Z,0.20
2023-05-21T00:24:17.929Z,0.23
2023-05-21T00:26:45.402Z,0.20
2023-05-21T00:29:12.972Z,0.20
2023-05-21T00:31:40.717Z,0.30
2023-05-21T00:34:08.261Z,0.33
2023-05-21T00:36:35.764Z,0.30
2023-05-21T00:39:04.787Z,0.30
2023-05-21T00:41:32.304Z,0.30
2023-05-21T00:44:00.571Z,0.20
2023-05-21T00:46:31.134Z,0.30
2023-05-21T00:48:59.259Z,0.30
2023-05-21T00:51:30.440Z,0.10
2023-05-21T00:53:58.323Z,0.13
2023-05-21T00:56:27.810Z,0.20
2023-05-21T00:58:58.529Z,0.17
2023-05-21T01:01:26.134Z,0.20
2023-05-21T01:03:54.563Z,0.30
2023-05-21T01:06:21.926Z,0.10
2023-05-21T01:08:50.945Z,0.60
2023-05-21T01:11:19.004Z,0.20
2023-05-21T01:13:47.440Z,0.20
2023-05-21T01:16:15.110Z,0.30
2023-05-21T01:18:45.394Z,0.30
2023-05-21T01:21:12.908Z,0.20
2023-05-21T01:23:40.857Z,0.20
2023-05-21T01:26:08.646Z,0.30
2023-05-21T01:28:37.116Z,0.17
2023-05-21T01:31:09.373Z,0.20
2023-05-21T01:33:49.901Z,0.30
2023-05-21T01:36:27.356Z,0.20
2023-05-21T01:39:01.685Z,0.10
2023-05-21T01:41:30.736Z,0.10
2023-05-21T01:43:58.575Z,0.20
2023-05-21T01:46:27.825Z,0.30
2023-05-21T01:48:57.251Z,0.20
2023-05-21T01:51:25.008Z,0.20
2023-05-21T01:53:52.555Z,0.10
2023-05-21T01:56:20.124Z,0.10
2023-05-21T01:58:50.117Z,0.30
2023-05-21T02:01:17.585Z,0.20
2023-05-21T02:03:45.336Z,0.30
2023-05-21T02:06:13.006Z,0.20
2023-05-21T02:08:40.630Z,0.30
2023-05-21T02:11:08.242Z,0.10
2023-05-21T02:13:42.756Z,0.20
2023-05-21T02:16:11.995Z,0.20
2023-05-21T02:18:39.659Z,0.20
2023-05-21T02:21:07.153Z,0.30
2023-05-21T02:23:34.686Z,0.10
2023-05-21T02:26:02.096Z,0.30
2023-05-21T02:28:30.246Z,0.10
2023-05-21T02:30:57.970Z,0.20
2023-05-21T02:33:26.301Z,0.20
2023-05-21T02:35:53.827Z,0.20
2023-05-21T02:38:23.326Z,0.20
2023-05-21T02:40:51.985Z,0.30
2023-05-21T02:43:19.425Z,0.30
2023-05-21T02:45:48.014Z,0.10
2023-05-21T02:48:15.612Z,0.10
2023-05-21T02:50:43.097Z,0.20
2023-05-21T02:53:13.371Z,0.20
2023-05-21T02:55:42.264Z,0.20
2023-05-21T02:58:09.853Z,0.20
2023-05-21T03:00:37.313Z,0.10
2023-05-21T03:03:04.995Z,0.20
2023-05-21T03:05:32.497Z,0.13
2023-05-21T03:07:59.852Z,0.20
2023-05-21T03:10:27.485Z,0.20
2023-05-21T03:12:55.095Z,0.20
2023-05-21T03:15:24.464Z,0.23
2023-05-21T03:17:54.405Z,0.10
2023-05-21T03:20:23.376Z,0.20
2023-05-21T03:22:51.034Z,0.27
2023-05-21T03:25:18.534Z,0.17
2023-05-21T03:27:46.105Z,0.20
2023-05-21T03:30:13.764Z,0.27
2023-05-21T03:32:41.639Z,0.20
2023-05-21T03:35:09.810Z,0.23
2023-05-21T03:37:37.136Z,0.30
2023-05-21T03:40:05.030Z,0.63
2023-05-21T03:42:32.527Z,0.50
2023-05-21T03:45:00.230Z,0.33
2023-05-21T03:47:27.742Z,0.30
2023-05-21T03:49:55.225Z,0.33
2023-05-21T03:52:22.692Z,0.40
2023-05-21T03:54:50.210Z,0.20
2023-05-21T03:57:17.692Z,0.10
2023-05-21T03:59:45.407Z,0.30
2023-05-21T04:02:12.799Z,0.30
2023-05-21T04:04:40.283Z,0.10
2023-05-21T04:07:14.474Z,0.20
2023-05-21T04:09:42.363Z,0.20
2023-05-21T04:12:09.770Z,0.20
2023-05-21T04:14:37.931Z,0.23
2023-05-21T04:17:05.593Z,0.30
2023-05-21T04:19:33.450Z,0.20
2023-05-21T04:22:01.240Z,0.20
2023-05-21T04:24:28.766Z,0.30
2023-05-21T04:26:57.399Z,0.27
2023-05-21T04:29:26.132Z,0.23
2023-05-21T04:31:53.604Z,0.30
2023-05-21T04:34:21.846Z,0.40
2023-05-21T04:36:49.946Z,0.40
2023-05-21T04:39:17.337Z,0.40
2023-05-21T04:41:45.873Z,0.30
2023-05-21T04:44:15.310Z,0.30
2023-05-21T04:46:43.047Z,0.30
2023-05-21T04:49:10.761Z,0.30
2023-05-21T04:51:38.217Z,0.30
2023-05-21T04:54:05.661Z,0.37
2023-05-21T04:56:33.078Z,0.43
2023-05-21T04:59:00.552Z,0.40
2023-05-21T05:01:29.506Z,0.30
2023-05-21T05:03:57.133Z,0.30
2023-05-21T05:06:26.086Z,0.30
2023-05-21T05:08:53.608Z,0.30
2023-05-21T05:11:21.020Z,0.30
2023-05-21T05:13:48.451Z,0.30
2023-05-21T05:16:18.656Z,0.30
2023-05-21T05:18:46.208Z,0.40
2023-05-21T05:21:15.722Z,0.30
2023-05-21T05:23:43.052Z,0.40
2023-05-21T05:26:11.490Z,0.30
2023-05-21T05:28:39.007Z,0.40
2023-05-21T05:31:07.115Z,0.33
2023-05-21T05:33:34.749Z,0.33
2023-05-21T05:36:02.127Z,0.50
2023-05-21T05:38:29.523Z,0.40
2023-05-21T05:40:56.924Z,0.50
2023-05-21T05:43:25.589Z,0.63
2023-05-21T05:45:53.198Z,0.40
2023-05-21T05:48:20.732Z,0.40
2023-05-21T05:50:48.926Z,0.57
2023-05-21T05:53:19.281Z,0.60
2023-05-21T05:55:46.737Z,0.47
2023-05-21T05:58:14.178Z,0.43
2023-05-21T06:00:41.661Z,0.30
2023-05-21T06:03:09.083Z,0.50
2023-05-21T06:05:36.936Z,0.80
2023-05-21T06:08:04.515Z,0.43
2023-05-21T06:10:31.880Z,0.50
2023-05-21T06:12:59.328Z,0.40
2023-05-21T06:15:26.886Z,0.33
2023-05-21T06:17:54.587Z,1.27
2023-05-21T06:20:22.069Z,0.60
2023-05-21T06:22:49.470Z,0.60
2023-05-21T06:25:18.506Z,0.63
2023-05-21T06:27:45.882Z,0.80
2023-05-21T06:30:13.429Z,0.60
2023-05-21T06:32:40.948Z,0.63
2023-05-21T06:35:09.078Z,0.80
2023-05-21T06:37:36.533Z,1.00
2023-05-21T06:40:04.046Z,0.80
2023-05-21T06:42:31.426Z,0.53
2023-05-21T06:44:58.767Z,0.90
2023-05-21T06:47:26.446Z,0.90
2023-05-21T06:49:53.848Z,0.53
2023-05-21T06:52:21.195Z,0.90
2023-05-21T06:54:48.609Z,0.80
2023-05-21T06:57:18.332Z,0.60
2023-05-21T06:59:45.899Z,1.47
2023-05-21T07:02:13.312Z,1.63
2023-05-21T07:04:41.084Z,2.20
2023-05-21T07:07:08.869Z,1.53
2023-05-21T07:09:36.238Z,1.23
2023-05-21T07:12:03.677Z,0.80
2023-05-21T07:14:31.025Z,0.90
2023-05-21T07:16:58.642Z,1.00
2023-05-21T07:19:26.242Z,1.20
2023-05-21T07:21:53.608Z,1.43
2023-05-21T07:24:21.331Z,1.60
2023-05-21T07:26:49.048Z,1.60
2023-05-21T07:29:18.408Z,0.97
2023-05-21T07:31:46.003Z,1.00
2023-05-21T07:34:13.459Z,1.30
2023-05-21T07:36:40.872Z,1.27
2023-05-21T07:39:08.216Z,0.83
2023-05-21T07:41:35.642Z,0.80
2023-05-21T07:44:03.158Z,0.97
2023-05-21T07:46:30.659Z,1.13
2023-05-21T07:48:58.102Z,0.80
2023-05-21T07:51:26.493Z,1.00
2023-05-21T07:53:55.302Z,1.80
2023-05-21T07:56:23.212Z,2.33
2023-05-21T07:58:50.657Z,1.30
2023-05-21T08:01:20.098Z,1.07
2023-05-21T08:03:47.803Z,1.10
2023-05-21T08:06:15.651Z,1.23
2023-05-21T08:08:43.046Z,0.80
2023-05-21T08:11:10.430Z,0.90
2023-05-21T08:13:37.819Z,1.10
2023-05-21T08:16:06.261Z,1.00
2023-05-21T08:18:33.854Z,1.30
2023-05-21T08:21:01.804Z,1.70
2023-05-21T08:23:29.109Z,2.37
2023-05-21T08:25:56.567Z,1.20
2023-05-21T08:28:24.271Z,1.20
2023-05-21T08:30:51.901Z,1.80
2023-05-21T08:33:22.217Z,1.30
2023-05-21T08:35:49.702Z,1.57
2023-05-21T08:38:17.729Z,1.63
2023-05-21T08:40:47.952Z,3.00
2023-05-21T08:43:16.688Z,2.03
2023-05-21T08:45:50.883Z,1.63
2023-05-21T08:48:18.504Z,1.70
2023-05-21T08:50:46.245Z,1.43
2023-05-21T08:53:24.167Z,1.60
2023-05-21T08:55:57.489Z,1.37
2023-05-21T08:58:25.542Z,1.20
2023-05-21T09:00:53.131Z,1.20
2023-05-21T09:03:22.576Z,1.07
2023-05-21T09:05:51.984Z,1.20
2023-05-21T09:08:21.341Z,1.20
2023-05-21T09:10:52.893Z,1.30
2023-05-21T09:13:24.664Z,1.27
2023-05-21T09:15:52.387Z,1.60
2023-05-21T09:18:19.933Z,1.70
2023-05-21T09:20:47.401Z,1.87
2023-05-21T09:23:17.912Z,2.03
2023-05-21T09:25:49.366Z,1.50
2023-05-21T09:28:17.565Z,1.63
2023-05-21T09:30:46.382Z,1.40
2023-05-21T09:33:14.029Z,1.53
2023-05-21T09:35:47.973Z,1.37
2023-05-21T09:38:15.490Z,1.30
2023-05-21T09:40:48.773Z,1.50
2023-05-21T09:43:16.595Z,1.60
2023-05-21T09:45:53.140Z,1.50
2023-05-21T09:48:40.930Z,1.53
2023-05-21T09:51:26.903Z,1.40
2023-05-21T09:53:55.166Z,1.40
2023-05-21T09:56:26.631Z,1.90
2023-05-21T09:59:02.192Z,2.00
2023-05-21T10:01:31.913Z,2.00
2023-05-21T10:04:00.437Z,2.43
2023-05-21T10:06:32.327Z,1.83
2023-05-21T10:09:01.622Z,1.50
2023-05-21T10:11:33.494Z,1.80
2023-05-21T10:14:04.007Z,2.08
2023-05-21T10:16:33.814Z,2.35
2023-05-21T10:19:01.625Z,1.67
2023-05-21T10:21:29.184Z,1.75
2023-05-21T10:23:57.287Z,1.73
2023-05-21T10:26:25.581Z,1.70
2023-05-21T10:28:53.005Z,1.45
2023-05-21T10:31:20.806Z,1.50
2023-05-21T10:33:49.564Z,1.30
2023-05-21T10:36:22.012Z,1.40
2023-05-21T10:38:49.641Z,1.50
2023-05-21T10:41:18.120Z,1.63
2023-05-21T10:43:49.090Z,1.52
2023-05-21T10:46:28.684Z,1.50
2023-05-21T10:49:14.901Z,1.60
2023-05-21T10:51:52.208Z,1.47
2023-05-21T10:54:28.897Z,2.00
2023-05-21T10:57:03.090Z,1.90
2023-05-21T10:59:33.414Z,1.77
2023-05-21T11:02:01.982Z,1.95
2023-05-21T11:04:29.728Z,2.13
2023-05-21T11:06:59.322Z,1.60
2023-05-21T11:09:27.215Z,1.65
2023-05-21T11:12:01.177Z,1.73
2023-05-21T11:14:35.578Z,1.73
2023-05-21T11:17:36.887Z,1.48
2023-05-21T11:20:17.460Z,1.53
2023-05-21T11:22:46.968Z,1.57
2023-05-21T11:25:15.744Z,1.80
2023-05-21T11:27:43.567Z,1.83
2023-05-21T11:30:18.273Z,1.60
2023-05-21T11:33:04.569Z,2.13
2023-05-21T11:35:32.286Z,2.23
2023-05-21T11:37:59.687Z,1.70
2023-05-21T11:40:28.478Z,1.60
2023-05-21T11:42:56.743Z,1.90
2023-05-21T11:45:31.560Z,2.00
2023-05-21T11:47:59.186Z,1.83
2023-05-21T11:50:27.497Z,1.92
2023-05-21T11:52:54.973Z,4.28
2023-05-21T11:55:23.226Z,3.00
2023-05-21T11:57:54.000Z,3.50
2023-05-21T12:00:21.939Z,3.17
2023-05-21T12:02:51.652Z,2.50
2023-05-21T12:05:19.419Z,2.10
2023-05-21T12:07:48.939Z,2.25
2023-05-21T12:10:16.874Z,2.42
2023-05-21T12:12:54.842Z,3.88
2023-05-21T12:15:24.811Z,3.25
2023-05-21T12:17:56.311Z,2.72
2023-05-21T12:20:24.051Z,3.40
2023-05-21T12:22:51.566Z,4.38
2023-05-21T12:25:20.410Z,5.13
2023-05-21T12:27:50.459Z,5.68
2023-05-21T12:30:18.010Z,6.22
2023-05-21T12:32:45.656Z,6.25
2023-05-21T12:35:23.257Z,7.65
2023-05-21T12:37:51.303Z,6.90
2023-05-21T12:40:19.148Z,6.07
2023-05-21T12:42:46.850Z,6.20
2023-05-21T12:45:14.527Z,6.28
2023-05-21T12:47:42.171Z,5.53
2023-05-21T12:50:14.286Z,6.32
2023-05-21T12:52:44.776Z,6.03
2023-05-21T12:55:14.158Z,5.25
2023-05-21T12:57:44.126Z,5.65
2023-05-21T13:00:12.175Z,5.50
2023-05-21T13:02:40.696Z,4.30
2023-05-21T13:05:08.930Z,4.85
2023-05-21T13:07:38.378Z,4.80
2023-05-21T13:10:06.524Z,4.47
2023-05-21T13:12:34.465Z,4.10
2023-05-21T13:15:02.487Z,3.70
2023-05-21T13:17:30.393Z,4.03
2023-05-21T13:20:09.348Z,4.18
2023-05-21T13:22:43.880Z,4.05
2023-05-21T13:25:12.091Z,3.72
2023-05-21T13:27:40.230Z,3.28
2023-05-21T13:30:08.236Z,2.90
2023-05-21T13:32:36.561Z,2.60
2023-05-21T13:35:04.328Z,2.80
2023-05-21T13:37:31.928Z,2.80
2023-05-21T13:39:59.376Z,1.85
2023-05-21T13:42:26.887Z,1.92
2023-05-21T13:44:54.295Z,1.70
2023-05-21T13:47:21.729Z,1.90
2023-05-21T13:49:49.185Z,1.80
2023-05-21T13:52:17.212Z,1.63
2023-05-21T13:54:44.785Z,2.08
2023-05-21T13:57:12.290Z,1.67
2023-05-21T13:59:41.047Z,1.73
2023-05-21T14:02:09.546Z,1.38
2023-05-21T14:04:39.260Z,1.48
2023-05-21T14:07:07.331Z,1.80
2023-05-21T14:09:35.874Z,1.60
2023-05-21T14:12:06.405Z,1.73
2023-05-21T14:14:34.370Z,1.95
2023-05-21T14:17:01.991Z,2.58
2023-05-21T14:19:32.379Z,1.95
2023-05-21T14:21:59.990Z,2.00
2023-05-21T14:24:27.496Z,2.38
2023-05-21T14:26:55.018Z,2.38
2023-05-21T14:29:22.548Z,2.30
2023-05-21T14:31:50.141Z,3.00
2023-05-21T14:34:17.597Z,3.47
2023-05-21T14:36:45.036Z,2.78
2023-05-21T14:39:12.527Z,2.60
2023-05-21T14:41:40.645Z,3.42
2023-05-21T14:44:08.468Z,3.25
2023-05-21T14:46:36.962Z,3.83
2023-05-21T14:49:04.603Z,3.60
2023-05-21T14:51:32.297Z,3.55
2023-05-21T14:54:00.060Z,3.80
2023-05-21T14:56:28.323Z,3.08
2023-05-21T14:58:56.116Z,3.22
2023-05-21T15:01:23.593Z,3.22
2023-05-21T15:03:51.497Z,3.40
2023-05-21T15:06:19.177Z,3.15
2023-05-21T15:08:46.608Z,3.40
2023-05-21T15:11:14.088Z,3.88
2023-05-21T15:13:41.662Z,3.38
2023-05-21T15:16:09.303Z,3.17
2023-05-21T15:18:36.768Z,3.33
2023-05-21T15:21:05.684Z,3.30
2023-05-21T15:23:33.567Z,3.40
2023-05-21T15:26:01.054Z,3.13
2023-05-21T15:28:28.692Z,2.58
2023-05-21T15:30:56.201Z,2.80
2023-05-21T15:33:23.605Z,3.17
2023-05-21T15:35:51.128Z,3.50
2023-05-21T15:38:18.657Z,3.33
2023-05-21T15:40:46.214Z,4.00
2023-05-21T15:43:13.647Z,4.03
2023-05-21T15:45:41.172Z,4.15
2023-05-21T15:48:09.075Z,3.95
2023-05-21T15:50:37.850Z,3.47
2023-05-21T15:53:06.073Z,3.45
2023-05-21T15:55:34.069Z,3.63
2023-05-21T15:58:02.570Z,3.90
2023-05-21T16:00:30.292Z,3.60
2023-05-21T16:02:57.806Z,3.45
2023-05-21T16:05:25.529Z,4.03
2023-05-21T16:07:52.957Z,4.50
2023-05-21T16:10:20.331Z,4.20
2023-05-21T16:12:47.742Z,4.22
2023-05-21T16:15:15.295Z,4.20
2023-05-21T16:17:42.944Z,4.22
2023-05-21T16:20:10.831Z,4.28
2023-05-21T16:22:38.408Z,4.45
2023-05-21T16:25:06.227Z,3.92
2023-05-21T16:27:35.286Z,3.60
2023-05-21T16:30:02.848Z,3.45
2023-05-21T16:32:30.444Z,3.58
2023-05-21T16:34:58.146Z,4.10
2023-05-21T16:37:25.622Z,3.90
2023-05-21T16:39:53.070Z,4.55
2023-05-21T16:42:20.759Z,4.63
2023-05-21T16:44:48.137Z,4.18
2023-05-21T16:47:15.571Z,4.07
2023-05-21T16:49:42.880Z,4.18
2023-05-21T16:52:10.325Z,4.13
2023-05-21T16:54:37.774Z,4.28
2023-05-21T16:57:05.187Z,4.13
2023-05-21T16:59:32.737Z,4.40
2023-05-21T17:02:00.345Z,3.95
2023-05-21T17:04:28.314Z,3.97
2023-05-21T17:06:55.773Z,4.47
2023-05-21T17:09:23.133Z,4.60
2023-05-21T17:11:50.687Z,3.90
2023-05-21T17:14:32.606Z,4.57
2023-05-21T17:17:01.204Z,4.10
2023-05-21T17:19:28.794Z,4.50
2023-05-21T17:21:56.570Z,4.30
2023-05-21T17:24:24.100Z,4.32
2023-05-21T17:26:51.550Z,4.18
2023-05-21T17:29:19.067Z,5.22
2023-05-21T17:31:46.621Z,4.60
2023-05-21T17:34:14.134Z,5.30
2023-05-21T17:36:41.536Z,4.50
2023-05-21T17:39:08.913Z,4.90
2023-05-21T17:41:36.626Z,4.20
2023-05-21T17:44:04.093Z,4.80
2023-05-21T17:46:31.606Z,4.47
2023-05-21T17:48:59.009Z,5.15
2023-05-21T17:51:26.491Z,4.93
2023-05-21T17:53:53.964Z,4.78
2023-05-21T17:56:21.690Z,5.00
2023-05-21T17:58:50.321Z,5.22
2023-05-21T18:01:17.873Z,5.10
2023-05-21T18:03:45.942Z,4.50
2023-05-21T18:06:13.450Z,4.55
2023-05-21T18:08:41.095Z,4.75
2023-05-21T18:11:08.420Z,4.75
2023-05-21T18:13:39.009Z,4.82
2023-05-21T18:16:08.953Z,4.47
2023-05-21T18:18:36.353Z,5.40
2023-05-21T18:21:03.767Z,5.13
2023-05-21T18:23:31.465Z,4.68
2023-05-21T18:25:58.850Z,4.35
2023-05-21T18:28:27.612Z,4.40
2023-05-21T18:30:55.306Z,4.78
2023-05-21T18:33:22.665Z,4.15
2023-05-21T18:35:50.034Z,4.57
2023-05-21T18:38:17.415Z,4.78
2023-05-21T18:40:44.725Z,4.30
2023-05-21T18:43:12.127Z,4.65
2023-05-21T18:45:39.406Z,5.65
2023-05-21T18:48:07.047Z,5.22
2023-05-21T18:50:35.202Z,5.28
2023-05-21T18:53:02.699Z,4.88
2023-05-21T18:55:30.169Z,5.32
2023-05-21T18:57:57.714Z,4.43
2023-05-21T19:00:25.041Z,5.00
2023-05-21T19:02:52.372Z,5.00
2023-05-21T19:05:19.829Z,5.00
2023-05-21T19:07:47.540Z,5.27
2023-05-21T19:10:14.872Z,5.00
2023-05-21T19:12:43.473Z,4.37
2023-05-21T19:15:11.291Z,4.87
2023-05-21T19:17:39.997Z,5.33
2023-05-21T19:20:08.545Z,4.80
2023-05-21T19:22:37.300Z,5.10
2023-05-21T19:25:04.986Z,5.13
2023-05-21T19:27:32.569Z,4.60
2023-05-21T19:30:00.151Z,5.10
2023-05-21T19:32:27.647Z,4.87
2023-05-21T19:34:57.088Z,5.47
2023-05-21T19:37:24.573Z,5.53
2023-05-21T19:39:52.027Z,4.93
2023-05-21T19:42:22.795Z,5.37
2023-05-21T19:44:50.214Z,5.80
2023-05-21T19:47:20.602Z,5.33
2023-05-21T19:49:47.969Z,5.17
2023-05-21T19:52:15.494Z,5.60
2023-05-21T19:54:43.009Z,5.63
2023-05-21T19:57:12.382Z,5.53
2023-05-21T19:59:40.259Z,5.20
2023-05-21T20:02:07.910Z,5.57
2023-05-21T20:04:35.229Z,5.40
2023-05-21T20:07:02.707Z,5.20
2023-05-21T20:09:30.152Z,5.40
2023-05-21T20:11:57.675Z,5.93
2023-05-21T20:14:25.232Z,5.33
2023-05-21T20:16:53.691Z,4.80
2023-05-21T20:19:22.825Z,4.90
2023-05-21T20:21:50.522Z,5.70
2023-05-21T20:24:17.887Z,5.30
2023-05-21T20:26:45.605Z,5.03
2023-05-21T20:29:13.128Z,5.73
2023-05-21T20:31:40.814Z,5.00
2023-05-21T20:34:09.540Z,6.10
2023-05-21T20:36:37.667Z,4.97
2023-05-21T20:39:06.430Z,4.50
2023-05-21T20:41:40.051Z,5.27
2023-05-21T20:44:07.554Z,5.20
2023-05-21T20:46:38.626Z,5.50
2023-05-21T20:49:06.381Z,6.00
2023-05-21T20:51:34.052Z,5.63
2023-05-21T20:54:01.719Z,5.63
2023-05-21T20:56:41.658Z,5.07
2023-05-21T20:59:11.391Z,4.80
2023-05-21T21:01:41.736Z,5.30
2023-05-21T21:04:09.581Z,5.57
2023-05-21T21:06:38.635Z,5.70
2023-05-21T21:09:06.296Z,5.13
2023-05-21T21:11:33.838Z,5.30
2023-05-21T21:14:04.160Z,5.57
2023-05-21T21:16:31.794Z,5.07
2023-05-21T21:18:59.630Z,5.43
2023-05-21T21:21:27.371Z,5.47
2023-05-21T21:23:54.846Z,5.20
2023-05-21T21:26:22.214Z,5.33
2023-05-21T21:28:49.621Z,5.30
2023-05-21T21:31:17.891Z,5.27
2023-05-21T21:33:45.313Z,5.60
2023-05-21T21:36:13.238Z,5.13
2023-05-21T21:38:40.718Z,5.40
2023-05-21T21:41:08.211Z,5.00
2023-05-21T21:43:35.854Z,5.00
2023-05-21T21:46:03.417Z,5.67
2023-05-21T21:48:30.925Z,5.60
2023-05-21T21:50:58.494Z,5.03
2023-05-21T21:53:25.854Z,5.23
2023-05-21T21:55:53.578Z,5.37
2023-05-21T21:58:20.894Z,5.00
2023-05-21T22:00:48.392Z,5.47
2023-05-21T22:03:16.691Z,5.30
2023-05-21T22:05:44.490Z,5.03
2023-05-21T22:08:11.897Z,5.23
2023-05-21T22:10:39.675Z,5.43
2023-05-21T22:13:07.692Z,4.97
2023-05-21T22:15:35.438Z,5.30
2023-05-21T22:18:03.625Z,5.13
2023-05-21T22:20:33.222Z,5.20
2023-05-21T22:23:00.733Z,5.13
2023-05-21T22:25:28.293Z,4.93
2023-05-21T22:27:55.970Z,5.00
2023-05-21T22:30:23.338Z,5.47
2023-05-21T22:32:50.830Z,5.33
2023-05-21T22:35:18.332Z,5.03
2023-05-21T22:37:45.685Z,5.43
2023-05-21T22:40:13.097Z,5.10
2023-05-21T22:42:40.975Z,5.07
2023-05-21T22:45:08.856Z,5.40
2023-05-21T22:47:39.602Z,5.60
2023-05-21T22:50:08.341Z,5.10
2023-05-21T22:52:36.217Z,5.77
2023-05-21T22:55:04.167Z,4.87
2023-05-21T22:57:31.608Z,5.17
2023-05-21T22:59:59.102Z,5.00
2023-05-21T23:02:26.511Z,5.27
2023-05-21T23:04:54.059Z,5.47
2023-05-21T23:07:21.677Z,4.50
2023-05-21T23:09:51.851Z,5.57
2023-05-21T23:12:19.284Z,4.67
2023-05-21T23:14:47.122Z,5.30
2023-05-21T23:17:14.528Z,5.50
2023-05-21T23:19:42.892Z,4.97
2023-05-21T23:22:10.603Z,4.87
2023-05-21T23:24:39.061Z,5.47
2023-05-21T23:27:06.770Z,4.90
2023-05-21T23:29:34.166Z,5.03
2023-05-21T23:32:01.632Z,5.33
2023-05-21T23:34:29.201Z,5.07
2023-05-21T23:36:58.727Z,4.87
2023-05-21T23:39:30.922Z,4.93
2023-05-21T23:41:58.304Z,5.60
2023-05-21T23:44:25.964Z,5.30
2023-05-21T23:46:53.365Z,5.23
2023-05-21T23:49:20.844Z,5.00
2023-05-21T23:51:50.930Z,4.87
2023-05-21T23:54:18.604Z,4.97
2023-05-21T23:56:46.684Z,5.47
2023-05-21T23:59:15.641Z,4.93
